createdAt,value
2023-03-02T00:02:06.283Z,-3.00
2023-03-02T00:04:46.919Z,-3.00
2023-03-02T00:07:33.511Z,-3.20
2023-03-02T00:10:01.172Z,-3.30
2023-03-02T00:12:31.189Z,-3.50
2023-03-02T00:14:58.851Z,-3.70
2023-03-02T00:17:29.337Z,-3.70
2023-03-02T00:20:11.550Z,-3.70
2023-03-02T00:22:40.902Z,-3.80
2023-03-02T00:25:10.118Z,-3.70
2023-03-02T00:27:38.086Z,-3.70
2023-03-02T00:30:07.041Z,-3.70
2023-03-02T00:32:34.625Z,-3.30
2023-03-02T00:35:02.376Z,-3.20
2023-03-02T00:37:29.933Z,-3.40
2023-03-02T00:39:57.436Z,-3.40
2023-03-02T00:42:24.967Z,-3.30
2023-03-02T00:44:53.758Z,-3.10
2023-03-02T00:47:21.298Z,-3.00
2023-03-02T00:49:49.689Z,-3.00
2023-03-02T00:52:17.877Z,-3.20
2023-03-02T00:54:45.368Z,-3.50
2023-03-02T00:57:13.015Z,-3.80
2023-03-02T00:59:40.666Z,-3.90
2023-03-02T01:02:08.568Z,-3.60
2023-03-02T01:04:42.242Z,-3.70
2023-03-02T01:07:17.291Z,-4.10
2023-03-02T01:09:46.107Z,-4.30
2023-03-02T01:12:13.667Z,-4.40
2023-03-02T01:14:45.960Z,-4.50
2023-03-02T01:17:15.123Z,-4.60
2023-03-02T01:19:42.929Z,-4.50
2023-03-02T01:22:10.968Z,-4.50
2023-03-02T01:24:38.424Z,-4.50
2023-03-02T01:27:06.070Z,-4.50
2023-03-02T01:29:33.597Z,-4.50
2023-03-02T01:32:01.292Z,-4.40
2023-03-02T01:34:29.188Z,-4.10
2023-03-02T01:36:56.962Z,-4.00
2023-03-02T01:39:24.487Z,-4.00
2023-03-02T01:41:53.685Z,-4.00
2023-03-02T01:44:37.879Z,-4.00
2023-03-02T01:47:33.045Z,-4.00
2023-03-02T01:50:23.990Z,-3.90
2023-03-02T01:52:53.494Z,-3.80
2023-03-02T01:55:25.550Z,-3.70
2023-03-02T01:57:55.341Z,-3.90
2023-03-02T02:00:27.880Z,-4.10
2023-03-02T02:03:09.101Z,-4.30
2023-03-02T02:05:43.691Z,-4.40
2023-03-02T02:08:11.583Z,-4.50
2023-03-02T02:10:39.796Z,-4.10
2023-03-02T02:13:11.418Z,-3.90
2023-03-02T02:15:40.808Z,-3.80
2023-03-02T02:18:08.368Z,-3.70
2023-03-02T02:20:45.566Z,-3.70
2023-03-02T02:23:29.601Z,-3.60
2023-03-02T02:26:08.749Z,-3.50
2023-03-02T02:29:00.042Z,-3.60
2023-03-02T02:31:40.227Z,-3.70
2023-03-02T02:34:22.821Z,-3.60
2023-03-02T02:36:57.747Z,-3.50
2023-03-02T02:39:36.216Z,-3.60
2023-03-02T02:42:14.376Z,-3.40
2023-03-02T02:44:42.157Z,-3.50
2023-03-02T02:47:20.630Z,-3.60
2023-03-02T02:49:52.935Z,-3.50
2023-03-02T02:52:23.518Z,-3.50
2023-03-02T02:54:55.530Z,-3.60
2023-03-02T02:57:26.838Z,-3.70
2023-03-02T03:00:00.853Z,-3.80
2023-03-02T03:02:34.466Z,-3.60
2023-03-02T03:05:04.830Z,-3.80
2023-03-02T03:07:33.462Z,-3.80
2023-03-02T03:10:15.856Z,-3.80
2023-03-02T03:12:44.067Z,-3.90
2023-03-02T03:15:12.535Z,-3.80
2023-03-02T03:17:41.120Z,-3.80
2023-03-02T03:20:09.653Z,-3.80
2023-03-02T03:22:40.422Z,-3.70
2023-03-02T03:25:08.531Z,-3.70
2023-03-02T03:27:36.006Z,-3.80
2023-03-02T03:30:03.995Z,-4.00
2023-03-02T03:32:35.660Z,-4.30
2023-03-02T03:35:03.766Z,-4.40
2023-03-02T03:37:31.260Z,-4.50
2023-03-02T03:39:58.685Z,-4.60
2023-03-02T03:42:26.173Z,-4.50
2023-03-02T03:44:53.726Z,-4.50
2023-03-02T03:47:21.229Z,-4.50
2023-03-02T03:49:48.644Z,-4.50
2023-03-02T03:52:16.089Z,-4.40
2023-03-02T03:54:43.608Z,-4.40
2023-03-02T03:57:12.289Z,-4.40
2023-03-02T03:59:39.749Z,-4.40
2023-03-02T04:02:07.307Z,-4.40
2023-03-02T04:04:35.674Z,-4.40
2023-03-02T04:07:03.414Z,-4.40
2023-03-02T04:09:32.508Z,-4.10
2023-03-02T04:12:00.169Z,-3.90
2023-03-02T04:14:27.680Z,-3.80
2023-03-02T04:16:55.211Z,-3.70
2023-03-02T04:19:23.871Z,-3.70
2023-03-02T04:21:55.037Z,-3.80
2023-03-02T04:24:24.126Z,-4.10
2023-03-02T04:26:52.402Z,-4.30
2023-03-02T04:29:20.123Z,-4.30
2023-03-02T04:31:48.686Z,-4.30
2023-03-02T04:34:16.221Z,-4.30
2023-03-02T04:36:44.560Z,-4.30
2023-03-02T04:39:15.390Z,-4.50
2023-03-02T04:41:42.845Z,-4.60
2023-03-02T04:44:10.522Z,-4.60
2023-03-02T04:46:38.229Z,-4.70
2023-03-02T04:49:06.324Z,-4.90
2023-03-02T04:51:39.056Z,-4.80
2023-03-02T04:54:25.584Z,-5.00
2023-03-02T04:56:53.472Z,-5.10
2023-03-02T04:59:26.450Z,-5.20
2023-03-02T05:01:59.343Z,-4.80
2023-03-02T05:04:28.945Z,-4.50
2023-03-02T05:06:57.047Z,-4.40
2023-03-02T05:09:28.871Z,-4.50
2023-03-02T05:11:58.981Z,-4.70
2023-03-02T05:14:27.431Z,-4.80
2023-03-02T05:16:55.293Z,-5.00
2023-03-02T05:19:23.058Z,-5.20
2023-03-02T05:21:50.696Z,-5.40
2023-03-02T05:24:18.180Z,-5.40
2023-03-02T05:26:45.837Z,-5.50
2023-03-02T05:29:13.373Z,-5.30
2023-03-02T05:31:44.621Z,-5.10
2023-03-02T05:34:14.872Z,-5.00
2023-03-02T05:36:43.175Z,-5.00
2023-03-02T05:39:11.184Z,-4.60
2023-03-02T05:41:39.538Z,-4.40
2023-03-02T05:44:09.753Z,-4.50
2023-03-02T05:46:37.938Z,-4.60
2023-03-02T05:49:05.803Z,-4.60
2023-03-02T05:51:33.359Z,-4.70
2023-03-02T05:54:01.339Z,-4.60
2023-03-02T05:56:28.867Z,-4.60
2023-03-02T05:58:56.312Z,-4.50
2023-03-02T06:01:23.848Z,-4.40
2023-03-02T06:03:51.337Z,-4.30
2023-03-02T06:06:18.999Z,-4.50
2023-03-02T06:08:46.455Z,-4.60
2023-03-02T06:11:14.047Z,-4.30
2023-03-02T06:13:41.654Z,-4.20
2023-03-02T06:16:09.729Z,-4.20
2023-03-02T06:18:40.354Z,-4.20
2023-03-02T06:21:09.846Z,-4.20
2023-03-02T06:23:37.351Z,-4.30
2023-03-02T06:26:12.545Z,-4.40
2023-03-02T06:28:51.994Z,-4.50
2023-03-02T06:31:21.053Z,-4.50
2023-03-02T06:33:48.645Z,-4.30
2023-03-02T06:36:17.284Z,-4.20
2023-03-02T06:38:45.020Z,-4.10
2023-03-02T06:41:12.609Z,-4.10
2023-03-02T06:43:40.072Z,-3.80
2023-03-02T06:46:07.708Z,-3.50
2023-03-02T06:48:35.264Z,-3.30
2023-03-02T06:51:02.727Z,-3.20
2023-03-02T06:53:30.381Z,-3.00
2023-03-02T06:55:57.874Z,-2.90
2023-03-02T06:58:25.475Z,-2.70
2023-03-02T07:00:53.000Z,-2.50
2023-03-02T07:03:20.866Z,-2.40
2023-03-02T07:05:49.268Z,-2.20
2023-03-02T07:08:16.735Z,-2.10
2023-03-02T07:10:44.401Z,-1.90
2023-03-02T07:13:11.901Z,-1.80
2023-03-02T07:15:40.284Z,-1.60
2023-03-02T07:18:07.801Z,-1.50
2023-03-02T07:20:35.447Z,-1.40
2023-03-02T07:23:02.985Z,-1.30
2023-03-02T07:25:30.556Z,-1.20
2023-03-02T07:27:58.285Z,-1.00
2023-03-02T07:30:26.373Z,-0.90
2023-03-02T07:32:53.820Z,-0.80
2023-03-02T07:35:21.320Z,-0.70
2023-03-02T07:37:48.790Z,-0.50
2023-03-02T07:40:16.406Z,-0.40
2023-03-02T07:42:43.867Z,-0.30
2023-03-02T07:45:17.134Z,-0.30
2023-03-02T07:47:44.763Z,-0.20
2023-03-02T07:50:12.924Z,0.00
2023-03-02T07:52:40.494Z,0.20
2023-03-02T07:55:09.023Z,0.30
2023-03-02T07:57:36.694Z,0.40
2023-03-02T08:00:05.887Z,0.60
2023-03-02T08:02:33.910Z,0.70
2023-03-02T08:05:01.437Z,0.80
2023-03-02T08:07:28.951Z,0.90
2023-03-02T08:09:56.455Z,1.00
2023-03-02T08:12:24.200Z,1.10
2023-03-02T08:14:51.614Z,1.20
2023-03-02T08:17:19.549Z,1.40
2023-03-02T08:19:47.429Z,1.50
2023-03-02T08:22:15.252Z,1.60
2023-03-02T08:24:43.101Z,1.80
2023-03-02T08:27:15.318Z,1.90
2023-03-02T08:29:42.987Z,2.10
2023-03-02T08:32:10.667Z,2.30
2023-03-02T08:34:38.241Z,2.40
2023-03-02T08:37:05.839Z,2.40
2023-03-02T08:39:34.093Z,2.60
2023-03-02T08:42:01.567Z,2.70
2023-03-02T08:44:29.068Z,2.90
2023-03-02T08:46:56.565Z,2.90
2023-03-02T08:49:24.189Z,3.10
2023-03-02T08:51:53.825Z,3.20
2023-03-02T08:54:22.027Z,3.30
2023-03-02T08:56:50.409Z,3.50
2023-03-02T08:59:18.612Z,3.60
2023-03-02T09:01:46.478Z,3.50
2023-03-02T09:04:14.181Z,3.70
2023-03-02T09:06:45.047Z,3.90
2023-03-02T09:09:15.314Z,4.30
2023-03-02T09:11:43.721Z,4.50
2023-03-02T09:14:11.410Z,4.50
2023-03-02T09:16:39.141Z,4.60
2023-03-02T09:19:06.946Z,4.70
2023-03-02T09:21:34.895Z,4.70
2023-03-02T09:24:02.766Z,4.70
2023-03-02T09:26:30.625Z,4.80
2023-03-02T09:28:58.424Z,4.90
2023-03-02T09:31:26.908Z,5.10
2023-03-02T09:33:57.353Z,5.20
2023-03-02T09:36:27.144Z,5.30
2023-03-02T09:38:55.463Z,5.40
2023-03-02T09:41:22.893Z,5.40
2023-03-02T09:44:31.284Z,5.60
2023-03-02T09:47:33.388Z,5.50
2023-03-02T09:50:29.085Z,5.60
2023-03-02T09:53:39.551Z,5.90
2023-03-02T09:56:17.222Z,6.00
2023-03-02T09:58:55.477Z,6.00
2023-03-02T10:01:42.254Z,6.00
2023-03-02T10:04:47.040Z,6.20
2023-03-02T10:07:34.269Z,6.50
2023-03-02T10:10:10.404Z,6.70
2023-03-02T10:13:20.423Z,6.30
2023-03-02T10:16:05.923Z,5.80
2023-03-02T10:19:11.387Z,6.00
2023-03-02T10:21:47.545Z,6.70
2023-03-02T10:24:23.728Z,7.10
2023-03-02T10:26:58.355Z,6.90
2023-03-02T10:29:43.919Z,6.60
2023-03-02T10:32:25.592Z,6.60
2023-03-02T10:34:54.318Z,6.90
2023-03-02T10:37:30.352Z,6.90
2023-03-02T10:39:58.012Z,7.10
2023-03-02T10:42:40.663Z,7.50
2023-03-02T10:45:35.195Z,7.70
2023-03-02T10:48:12.292Z,8.10
2023-03-02T10:50:40.272Z,8.10
2023-03-02T10:53:16.728Z,7.90
2023-03-02T10:55:51.108Z,7.90
2023-03-02T10:58:34.770Z,8.10
2023-03-02T11:01:07.252Z,7.70
2023-03-02T11:03:35.030Z,7.80
2023-03-02T11:06:22.638Z,7.80
2023-03-02T11:09:05.429Z,8.30
2023-03-02T11:11:34.263Z,8.70
2023-03-02T11:14:20.082Z,9.00
2023-03-02T11:16:47.584Z,8.90
2023-03-02T11:19:26.212Z,8.30
2023-03-02T11:22:14.034Z,7.70
2023-03-02T11:24:54.094Z,7.70
2023-03-02T11:27:27.513Z,8.30
2023-03-02T11:30:09.423Z,8.50
2023-03-02T11:33:04.578Z,8.50
2023-03-02T11:35:52.728Z,8.00
2023-03-02T11:38:27.742Z,8.80
2023-03-02T11:41:05.129Z,9.40
2023-03-02T11:43:33.069Z,9.70
2023-03-02T11:46:10.919Z,8.90
2023-03-02T11:48:49.158Z,9.10
2023-03-02T11:51:34.968Z,8.90
2023-03-02T11:54:10.859Z,9.50
2023-03-02T11:56:40.428Z,9.50
2023-03-02T11:59:17.568Z,9.80
2023-03-02T12:01:49.955Z,10.10
2023-03-02T12:04:38.871Z,10.30
2023-03-02T12:07:24.389Z,10.50
2023-03-02T12:10:21.423Z,10.40
2023-03-02T12:13:15.077Z,10.30
2023-03-02T12:15:50.352Z,10.70
2023-03-02T12:18:24.117Z,11.10
2023-03-02T12:21:15.883Z,11.60
2023-03-02T12:23:49.219Z,12.10
2023-03-02T12:26:35.641Z,12.70
2023-03-02T12:29:14.015Z,13.20
2023-03-02T12:31:49.724Z,12.20
2023-03-02T12:34:26.896Z,11.10
2023-03-02T12:37:04.586Z,10.30
2023-03-02T12:40:16.494Z,10.10
2023-03-02T12:43:29.953Z,10.10
2023-03-02T12:46:13.441Z,11.80
2023-03-02T12:48:53.116Z,12.90
2023-03-02T12:51:24.696Z,12.80
2023-03-02T12:54:21.709Z,11.20
2023-03-02T12:56:50.373Z,10.30
2023-03-02T12:59:29.250Z,10.30
2023-03-02T13:02:23.501Z,11.30
2023-03-02T13:05:02.088Z,11.90
2023-03-02T13:07:39.487Z,11.30
2023-03-02T13:10:31.830Z,11.10
2023-03-02T13:13:00.946Z,10.50
2023-03-02T13:15:28.650Z,10.50
2023-03-02T13:17:59.503Z,10.30
2023-03-02T13:20:30.826Z,10.10
2023-03-02T13:22:58.431Z,10.30
2023-03-02T13:25:31.340Z,11.40
2023-03-02T13:28:04.652Z,11.20
2023-03-02T13:30:34.645Z,10.90
2023-03-02T13:33:13.533Z,10.80
2023-03-02T13:35:47.558Z,11.90
2023-03-02T13:38:21.916Z,12.70
2023-03-02T13:40:52.779Z,13.70
2023-03-02T13:43:39.173Z,14.70
2023-03-02T13:46:30.830Z,15.00
2023-03-02T13:49:12.920Z,15.10
2023-03-02T13:51:46.752Z,15.80
2023-03-02T13:54:31.619Z,15.10
2023-03-02T13:57:01.490Z,14.60
2023-03-02T13:59:30.449Z,13.60
2023-03-02T14:01:58.215Z,12.90
2023-03-02T14:04:26.015Z,12.60
2023-03-02T14:06:55.661Z,13.30
2023-03-02T14:09:23.322Z,14.10
2023-03-02T14:11:54.138Z,13.60
2023-03-02T14:14:25.547Z,12.70
2023-03-02T14:16:53.246Z,12.50
2023-03-02T14:19:21.673Z,12.10
2023-03-02T14:21:49.258Z,12.10
2023-03-02T14:24:16.774Z,12.50
2023-03-02T14:26:47.420Z,12.10
2023-03-02T14:29:29.511Z,12.00
2023-03-02T14:32:09.219Z,12.40
2023-03-02T14:34:37.331Z,12.80
2023-03-02T14:37:14.666Z,12.50
2023-03-02T14:39:47.776Z,11.80
2023-03-02T14:42:18.616Z,11.80
2023-03-02T14:44:49.221Z,11.60
2023-03-02T14:47:19.699Z,11.60
2023-03-02T14:49:49.028Z,11.30
2023-03-02T14:52:42.274Z,10.90
2023-03-02T14:55:31.124Z,10.60
2023-03-02T14:58:03.697Z,10.60
2023-03-02T15:00:31.872Z,10.40
2023-03-02T15:02:59.875Z,10.10
2023-03-02T15:05:27.426Z,9.90
2023-03-02T15:07:58.790Z,9.60
2023-03-02T15:10:26.468Z,9.20
2023-03-02T15:12:54.110Z,9.00
2023-03-02T15:15:22.522Z,8.60
2023-03-02T15:17:50.022Z,8.50
2023-03-02T15:20:17.811Z,8.50
2023-03-02T15:22:45.301Z,8.50
2023-03-02T15:25:12.797Z,8.30
2023-03-02T15:27:41.707Z,8.20
2023-03-02T15:30:10.376Z,7.90
2023-03-02T15:32:38.106Z,8.00
2023-03-02T15:35:06.218Z,7.70
2023-03-02T15:37:33.719Z,7.40
2023-03-02T15:40:01.273Z,7.20
2023-03-02T15:42:28.761Z,7.00
2023-03-02T15:44:56.277Z,6.80
2023-03-02T15:47:23.867Z,6.60
2023-03-02T15:49:51.356Z,6.40
2023-03-02T15:52:20.228Z,6.30
2023-03-02T15:54:47.835Z,6.10
2023-03-02T15:57:15.371Z,5.90
2023-03-02T15:59:43.812Z,5.70
2023-03-02T16:02:11.773Z,5.50
2023-03-02T16:04:39.436Z,5.30
2023-03-02T16:07:06.968Z,5.10
2023-03-02T16:09:34.512Z,4.90
2023-03-02T16:12:02.033Z,4.70
2023-03-02T16:14:29.494Z,4.60
2023-03-02T16:16:57.016Z,4.30
2023-03-02T16:19:24.546Z,4.10
2023-03-02T16:21:52.012Z,3.90
2023-03-02T16:24:19.569Z,3.70
2023-03-02T16:26:47.289Z,3.60
2023-03-02T16:29:14.916Z,3.40
2023-03-02T16:31:46.271Z,3.30
2023-03-02T16:34:13.918Z,3.20
2023-03-02T16:36:42.351Z,3.10
2023-03-02T16:39:11.665Z,3.00
2023-03-02T16:41:41.473Z,2.90
2023-03-02T16:44:13.651Z,2.80
2023-03-02T16:46:43.764Z,2.70
2023-03-02T16:49:12.518Z,2.50
2023-03-02T16:51:41.830Z,2.40
2023-03-02T16:54:10.251Z,2.30
2023-03-02T16:56:37.835Z,2.20
2023-03-02T16:59:05.495Z,2.20
2023-03-02T17:01:33.078Z,2.20
2023-03-02T17:04:00.751Z,2.10
2023-03-02T17:06:28.293Z,2.00
2023-03-02T17:08:55.816Z,1.90
2023-03-02T17:11:23.350Z,1.80
2023-03-02T17:13:50.870Z,1.70
2023-03-02T17:16:19.450Z,1.70
2023-03-02T17:18:47.255Z,1.70
2023-03-02T17:21:17.031Z,1.60
2023-03-02T17:23:48.283Z,1.60
2023-03-02T17:26:17.924Z,1.50
2023-03-02T17:28:45.391Z,1.50
2023-03-02T17:31:13.004Z,1.50
2023-03-02T17:33:40.735Z,1.40
2023-03-02T17:36:12.241Z,1.40
2023-03-02T17:38:40.840Z,1.40
2023-03-02T17:41:10.282Z,1.30
2023-03-02T17:43:41.725Z,1.20
2023-03-02T17:46:22.991Z,1.10
2023-03-02T17:48:54.519Z,1.00
2023-03-02T17:51:23.040Z,1.00
2023-03-02T17:53:53.300Z,0.90
2023-03-02T17:56:24.657Z,0.80
2023-03-02T17:59:11.055Z,0.70
2023-03-02T18:01:38.553Z,0.60
2023-03-02T18:04:06.606Z,0.60
2023-03-02T18:06:34.598Z,0.50
2023-03-02T18:09:02.111Z,0.50
2023-03-02T18:11:29.738Z,0.50
2023-03-02T18:13:58.217Z,0.40
2023-03-02T18:16:28.371Z,0.30
2023-03-02T18:18:57.601Z,0.30
2023-03-02T18:21:25.065Z,0.20
2023-03-02T18:23:53.064Z,0.20
2023-03-02T18:26:20.688Z,0.30
2023-03-02T18:28:48.161Z,0.40
2023-03-02T18:31:17.827Z,0.40
2023-03-02T18:33:46.121Z,0.40
2023-03-02T18:36:14.968Z,0.50
2023-03-02T18:38:42.937Z,0.50
2023-03-02T18:41:12.559Z,0.50
2023-03-02T18:43:42.449Z,0.50
2023-03-02T18:46:20.945Z,0.60
2023-03-02T18:48:50.305Z,0.60
2023-03-02T18:51:23.036Z,0.60
2023-03-02T18:53:51.907Z,0.60
2023-03-02T18:56:20.544Z,0.60
2023-03-02T18:58:49.827Z,0.60
2023-03-02T19:01:18.356Z,0.60
2023-03-02T19:03:46.105Z,0.60
2023-03-02T19:06:14.337Z,0.50
2023-03-02T19:08:41.898Z,0.50
2023-03-02T19:11:09.440Z,0.40
2023-03-02T19:13:36.955Z,0.40
2023-03-02T19:16:05.136Z,0.30
2023-03-02T19:18:33.409Z,0.30
2023-03-02T19:21:01.610Z,0.30
2023-03-02T19:23:30.068Z,0.30
2023-03-02T19:25:58.433Z,0.30
2023-03-02T19:28:27.682Z,0.30
2023-03-02T19:30:55.137Z,0.30
2023-03-02T19:33:24.982Z,0.30
2023-03-02T19:35:52.590Z,0.30
2023-03-02T19:38:20.058Z,0.30
2023-03-02T19:40:47.545Z,0.30
2023-03-02T19:43:15.080Z,0.30
2023-03-02T19:45:42.565Z,0.30
2023-03-02T19:48:13.755Z,0.30
2023-03-02T19:50:42.086Z,0.20
2023-03-02T19:53:10.704Z,0.20
2023-03-02T19:55:39.079Z,0.20
2023-03-02T19:58:08.135Z,0.10
2023-03-02T20:00:36.474Z,0.20
2023-03-02T20:03:06.202Z,0.20
2023-03-02T20:05:33.633Z,0.20
2023-03-02T20:08:01.212Z,0.20
2023-03-02T20:10:32.190Z,0.10
2023-03-02T20:13:00.395Z,0.10
2023-03-02T20:15:31.159Z,0.10
2023-03-02T20:18:01.514Z,0.10
2023-03-02T20:20:30.825Z,0.10
2023-03-02T20:23:00.267Z,0.00
2023-03-02T20:25:28.744Z,0.00
2023-03-02T20:27:57.437Z,0.00
2023-03-02T20:30:31.941Z,0.00
2023-03-02T20:33:01.568Z,0.00
2023-03-02T20:35:33.007Z,0.00
2023-03-02T20:38:05.600Z,0.00
2023-03-02T20:40:34.078Z,0.00
2023-03-02T20:43:02.025Z,0.00
2023-03-02T20:45:29.695Z,0.00
2023-03-02T20:47:57.651Z,0.00
2023-03-02T20:50:30.501Z,0.00
2023-03-02T20:52:58.433Z,0.00
2023-03-02T20:55:27.091Z,0.00
2023-03-02T20:57:56.168Z,0.00
2023-03-02T21:00:30.767Z,-0.10
2023-03-02T21:02:58.997Z,-0.10
2023-03-02T21:05:28.175Z,0.00
2023-03-02T21:07:56.916Z,0.00
2023-03-02T21:10:35.012Z,0.00
2023-03-02T21:13:04.337Z,0.00
2023-03-02T21:15:32.366Z,-0.10
2023-03-02T21:18:00.243Z,-0.20
2023-03-02T21:20:32.224Z,-0.20
2023-03-02T21:22:59.998Z,0.00
2023-03-02T21:25:28.613Z,0.00
2023-03-02T21:27:56.657Z,0.00
2023-03-02T21:30:29.888Z,0.00
2023-03-02T21:32:57.854Z,-0.10
2023-03-02T21:35:25.562Z,-0.10
2023-03-02T21:37:57.667Z,-0.10
2023-03-02T21:40:31.922Z,-0.10
2023-03-02T21:43:00.601Z,0.00
2023-03-02T21:45:29.255Z,0.00
2023-03-02T21:47:57.056Z,-0.10
2023-03-02T21:50:29.019Z,-0.20
2023-03-02T21:52:59.464Z,-0.30
2023-03-02T21:55:27.999Z,-0.20
2023-03-02T21:57:56.274Z,-0.10
2023-03-02T22:00:28.447Z,0.00
2023-03-02T22:02:56.523Z,0.00
2023-03-02T22:05:24.007Z,0.00
2023-03-02T22:07:51.703Z,0.00
2023-03-02T22:10:38.625Z,-0.10
2023-03-02T22:13:25.292Z,-0.10
2023-03-02T22:16:35.448Z,-0.30
2023-03-02T22:19:25.794Z,-0.20
2023-03-02T22:21:56.066Z,-0.10
2023-03-02T22:24:28.957Z,-0.10
2023-03-02T22:27:31.120Z,-0.10
2023-03-02T22:30:01.997Z,-0.20
2023-03-02T22:32:35.923Z,-0.30
2023-03-02T22:35:33.048Z,-0.40
2023-03-02T22:38:08.109Z,-0.50
2023-03-02T22:40:37.156Z,-0.60
2023-03-02T22:43:29.627Z,-0.60
2023-03-02T22:46:06.174Z,-0.70
2023-03-02T22:48:36.206Z,-0.80
2023-03-02T22:51:21.042Z,-0.80
2023-03-02T22:53:56.709Z,-0.80
2023-03-02T22:56:38.279Z,-0.70
2023-03-02T22:59:27.393Z,-0.70
2023-03-02T23:02:08.409Z,-0.70
2023-03-02T23:04:39.700Z,-0.60
2023-03-02T23:07:21.449Z,-0.50
2023-03-02T23:09:49.483Z,-0.50
2023-03-02T23:12:23.436Z,-0.50
2023-03-02T23:14:57.418Z,-0.50
2023-03-02T23:17:36.043Z,-0.50
2023-03-02T23:20:12.060Z,-0.60
2023-03-02T23:22:39.998Z,-0.60
2023-03-02T23:25:08.996Z,-0.50
2023-03-02T23:27:36.511Z,-0.50
2023-03-02T23:30:06.373Z,-0.40
2023-03-02T23:32:33.886Z,-0.50
2023-03-02T23:35:01.385Z,-0.60
2023-03-02T23:37:28.914Z,-0.70
2023-03-02T23:39:56.353Z,-0.70
2023-03-02T23:42:24.054Z,-0.70
2023-03-02T23:44:51.559Z,-0.60
2023-03-02T23:47:19.092Z,-0.60
2023-03-02T23:49:46.602Z,-0.60
2023-03-02T23:52:14.131Z,-0.60
2023-03-02T23:54:43.487Z,-0.60
2023-03-02T23:57:10.941Z,-0.80
2023-03-02T23:59:38.473Z,-0.80
